Flag for USA

Past Weather in Greensboro, North Carolina, USA — Yesterday and Last 2 Weeks

Currently: 64 °F. Fog. (Weather station: Piedmont Triad International Airport, USA). See more current weather

Past Weather in Greensboro — Graph

°F

Greensboro Temperature Yesterday

Maximum temperature yesterday: 69 °F (at 3:54 pm)
Minimum temperature yesterday: 53 °F (at 3:10 am)
Average temperature yesterday: 59 °F

High & Low Weather Summary for the Past Weeks

 TemperatureHumidityPressure
High80 °F (Oct 24, 2:54 pm)100% (Oct 13, 7:17 am)30.41 "Hg (Oct 13, 7:17 am)
Low41 °F (Oct 18, 5:54 am)31% (Oct 14, 12:54 pm)29.90 "Hg (Oct 24, 3:54 pm)
Average61 °F83%30.13 "Hg
* Reported Oct 13 7:17 am — Oct 28 7:54 am, Greensboro. Weather by CustomWeather, © 2020

Note: Actual official high and low records may vary slightly from our data, if they occured in-between our weather recording intervals... More about our weather records

Greensboro Weather History for the Previous 24 Hours

Scroll right to see more
 ConditionsComfort  
Time TempWeatherWind HumidityBarometerVisibility
7:54 am
Wed, Oct 28
59 °FFog.5 mph100%30.10 "Hg0 mi
6:54 am58 °FFog.6 mph100%30.10 "Hg0 mi
5:54 am59 °FFog.No wind100%30.10 "Hg0 mi
4:54 am58 °FFog.No wind100%30.12 "Hg0 mi
3:54 am56 °FFog.3 mph100%30.12 "Hg3 mi
2:54 am57 °FFog.6 mph100%30.12 "Hg5 mi
1:54 am57 °FFog.5 mph100%30.12 "Hg5 mi
12:54 am58 °FFog.6 mph100%30.13 "Hg7 mi
11:54 pm
Tue, Oct 27
58 °FFog.No wind100%30.14 "Hg5 mi
10:54 pm60 °FPassing clouds.No wind96%30.15 "Hg7 mi
9:54 pm58 °FPassing clouds.6 mph100%30.15 "Hg7 mi
8:54 pm60 °FClear.5 mph96%30.14 "Hg10 mi
7:54 pm61 °FClear.3 mph93%30.14 "Hg10 mi
6:54 pm63 °FPassing clouds.8 mph93%30.13 "Hg10 mi
5:54 pm66 °FPassing clouds.7 mph84%30.12 "Hg10 mi
4:54 pm68 °FPassing clouds.7 mph78%30.12 "Hg10 mi
3:54 pm69 °FPassing clouds.7 mph79%30.11 "Hg10 mi
2:54 pm68 °FScattered clouds.6 mph82%30.14 "Hg10 mi
1:54 pm66 °FOvercast.6 mph84%30.15 "Hg10 mi
1:12 pm65 °FOvercast.3 mph87%30.19 "Hg10 mi
12:54 pm65 °FLow clouds.7 mph87%30.18 "Hg10 mi
11:54 am64 °FLow clouds.7 mph90%30.19 "Hg8 mi
11:29 am64 °FPartly sunny.8 mph90%30.21 "Hg8 mi
11:06 am64 °FBroken clouds.6 mph94%30.21 "Hg7 mi
10:54 am62 °FFog.5 mph96%30.20 "Hg6 mi
10:36 am60 °FFog.3 mph100%30.22 "Hg4 mi
10:12 am59 °FFog.No wind100%30.22 "Hg1 mi
Weather by CustomWeather, © 2020

See weather overview